createdAt,value
2023-01-01T00:04:49.645Z,13.40
2023-01-01T00:07:19.399Z,14.10
2023-01-01T00:12:44.025Z,14.50
2023-01-01T00:15:11.443Z,14.10
2023-01-01T00:17:39.758Z,13.40
2023-01-01T00:25:22.948Z,13.60
2023-01-01T00:27:50.026Z,13.40
2023-01-01T00:30:17.112Z,13.40
2023-01-01T00:32:55.298Z,13.40
2023-01-01T00:35:25.679Z,14.50
2023-01-01T00:37:53.898Z,13.50
2023-01-01T00:40:27.934Z,13.40
2023-01-01T00:42:57.313Z,13.60
2023-01-01T00:50:23.738Z,14.90
2023-01-01T00:55:18.820Z,13.50
2023-01-01T00:57:45.839Z,15.40
2023-01-01T01:00:13.560Z,14.50
2023-01-01T01:05:11.646Z,13.60
2023-01-01T01:07:39.700Z,13.60
2023-01-01T01:10:12.204Z,13.60
2023-01-01T01:15:09.485Z,13.60
2023-01-01T01:17:36.911Z,13.60
2023-01-01T01:20:05.409Z,13.70
2023-01-01T01:22:35.975Z,13.80
2023-01-01T01:25:03.243Z,14.30
2023-01-01T01:37:24.038Z,12.20
2023-01-01T01:39:54.033Z,14.60
2023-01-01T01:42:22.220Z,11.70
2023-01-01T01:44:54.980Z,13.90
2023-01-01T01:47:31.460Z,13.90
2023-01-01T01:50:11.386Z,13.90
2023-01-01T01:52:48.498Z,14.00
2023-01-01T01:55:16.966Z,13.90
2023-01-01T01:57:46.172Z,14.60
2023-01-01T02:00:16.891Z,12.60
2023-01-01T02:02:52.134Z,14.00
2023-01-01T02:05:20.939Z,14.60
2023-01-01T02:07:52.301Z,10.60
2023-01-01T02:12:51.200Z,14.00
2023-01-01T02:15:19.389Z,14.40
2023-01-01T02:18:10.960Z,15.10
2023-01-01T02:20:48.409Z,14.00
2023-01-01T02:23:34.040Z,14.00
2023-01-01T02:26:39.102Z,14.70
2023-01-01T02:29:25.139Z,13.50
2023-01-01T02:32:00.785Z,14.10
2023-01-01T02:34:33.746Z,16.00
2023-01-01T02:37:08.063Z,14.00
2023-01-01T02:39:44.302Z,14.10
2023-01-01T02:42:12.153Z,14.00
2023-01-01T02:44:42.651Z,13.90
2023-01-01T02:47:13.299Z,13.90
2023-01-01T02:49:48.590Z,14.00
2023-01-01T02:52:31.853Z,14.00
2023-01-01T02:55:16.534Z,13.30
2023-01-01T02:57:59.643Z,15.20
2023-01-01T03:00:31.481Z,14.00
2023-01-01T03:03:22.131Z,13.90
2023-01-01T03:06:10.865Z,14.00
2023-01-01T03:08:52.967Z,14.00
2023-01-01T03:11:22.185Z,14.00
2023-01-01T03:14:06.858Z,14.60
2023-01-01T03:16:47.643Z,11.50
2023-01-01T03:19:24.592Z,14.00
2023-01-01T03:22:13.898Z,14.00
2023-01-01T03:24:44.721Z,14.20
2023-01-01T03:27:23.642Z,14.00
2023-01-01T03:29:53.554Z,14.10
2023-01-01T03:32:52.313Z,12.30
2023-01-01T03:35:21.683Z,14.00
2023-01-01T03:37:52.958Z,15.50
2023-01-01T03:40:22.019Z,16.60
2023-01-01T03:43:00.397Z,14.80
2023-01-01T03:45:37.644Z,14.00
2023-01-01T03:48:06.270Z,14.20
2023-01-01T03:50:40.687Z,13.90
2023-01-01T03:53:16.072Z,15.40
2023-01-01T03:55:53.569Z,13.60
2023-01-01T03:58:40.227Z,15.40
2023-01-01T04:01:26.210Z,14.60
2023-01-01T04:03:53.922Z,14.30
2023-01-01T04:06:22.163Z,13.70
2023-01-01T04:08:53.871Z,13.00
2023-01-01T04:11:43.766Z,14.00
2023-01-01T04:14:11.077Z,12.10
2023-01-01T04:16:38.577Z,12.30
2023-01-01T04:21:36.272Z,13.10
2023-01-01T04:24:03.484Z,14.30
2023-01-01T04:26:30.503Z,12.70
2023-01-01T04:28:57.420Z,12.70
2023-01-01T04:31:24.851Z,11.60
2023-01-01T04:33:54.272Z,12.80
2023-01-01T04:36:22.042Z,12.60
2023-01-01T04:38:48.962Z,12.00
2023-01-01T04:41:16.065Z,13.20
2023-01-01T04:43:49.775Z,13.50
2023-01-01T04:46:23.949Z,12.80
2023-01-01T04:48:51.500Z,12.50
2023-01-01T04:51:20.481Z,14.00
2023-01-01T04:53:47.755Z,13.10
2023-01-01T04:56:18.646Z,13.60
2023-01-01T04:58:46.874Z,13.50
2023-01-01T05:01:43.446Z,13.20
2023-01-01T05:04:14.041Z,13.80
2023-01-01T05:06:41.073Z,12.50
2023-01-01T05:09:10.294Z,12.50
2023-01-01T05:11:37.577Z,12.60
2023-01-01T05:14:07.731Z,12.70
2023-01-01T05:16:37.592Z,12.80
2023-01-01T05:19:05.709Z,12.80
2023-01-01T05:21:36.581Z,12.60
2023-01-01T05:24:06.670Z,12.80
2023-01-01T05:26:36.633Z,12.80
2023-01-01T05:29:04.162Z,12.80
2023-01-01T05:31:35.216Z,12.80
2023-01-01T05:36:34.531Z,12.60
2023-01-01T05:39:01.561Z,12.50
2023-01-01T05:46:25.739Z,11.80
2023-01-01T05:48:53.540Z,12.70
2023-01-01T05:51:23.066Z,13.30
2023-01-01T05:53:51.157Z,13.70
2023-01-01T05:56:18.592Z,12.80
2023-01-01T05:58:46.750Z,14.00
2023-01-01T06:01:21.232Z,13.70
2023-01-01T06:03:49.005Z,12.70
2023-01-01T06:06:22.570Z,12.60
2023-01-01T06:08:57.274Z,10.50
2023-01-01T06:13:58.295Z,12.60
2023-01-01T06:16:27.067Z,12.90
2023-01-01T06:18:54.446Z,12.50
2023-01-01T06:21:24.103Z,12.70
2023-01-01T06:23:51.471Z,12.60
2023-01-01T06:26:30.016Z,12.60
2023-01-01T06:29:01.473Z,13.00
2023-01-01T06:31:32.920Z,11.30
2023-01-01T06:34:02.560Z,12.70
2023-01-01T06:36:29.464Z,12.60
2023-01-01T06:38:58.780Z,12.70
2023-01-01T06:41:28.072Z,13.40
2023-01-01T06:43:56.456Z,13.30
2023-01-01T06:46:32.091Z,12.70
2023-01-01T06:49:04.073Z,14.00
2023-01-01T06:51:38.580Z,12.70
2023-01-01T06:54:06.167Z,12.70
2023-01-01T06:56:33.742Z,14.60
2023-01-01T07:01:31.675Z,12.70
2023-01-01T07:04:05.247Z,12.70
2023-01-01T07:06:33.422Z,12.80
2023-01-01T07:16:23.954Z,12.50
2023-01-01T07:18:51.671Z,12.40
2023-01-01T07:21:43.612Z,10.90
2023-01-01T07:24:13.059Z,12.40
2023-01-01T07:26:41.178Z,12.10
2023-01-01T07:29:08.958Z,13.10
2023-01-01T07:31:40.726Z,11.10
2023-01-01T07:34:14.045Z,15.20
2023-01-01T07:39:09.363Z,12.20
2023-01-01T07:44:05.242Z,12.30
2023-01-01T07:46:35.975Z,10.50
2023-01-01T07:49:04.071Z,12.30
2023-01-01T07:51:31.180Z,12.30
2023-01-01T07:54:05.665Z,12.30
2023-01-01T07:56:36.158Z,12.40
2023-01-01T08:01:30.608Z,12.40
2023-01-01T08:03:57.883Z,12.40
2023-01-01T08:13:52.042Z,11.80
2023-01-01T08:16:20.184Z,13.40
2023-01-01T08:18:50.237Z,12.90
2023-01-01T08:21:17.193Z,13.80
2023-01-01T08:23:45.197Z,12.80
2023-01-01T08:26:17.331Z,13.30
2023-01-01T08:33:39.308Z,12.80
2023-01-01T08:36:06.746Z,13.20
2023-01-01T08:38:33.737Z,12.80
2023-01-01T08:41:00.770Z,12.80
2023-01-01T08:43:33.822Z,12.70
2023-01-01T08:48:30.933Z,12.70
2023-01-01T08:51:03.012Z,12.70
2023-01-01T08:53:31.928Z,12.60
2023-01-01T08:56:05.602Z,12.70
2023-01-01T08:58:35.082Z,12.70
2023-01-01T09:01:03.754Z,13.60
2023-01-01T09:03:31.070Z,14.40
2023-01-01T09:05:58.202Z,12.70
2023-01-01T09:08:25.631Z,10.80
2023-01-01T09:10:53.156Z,13.50
2023-01-01T09:13:22.710Z,12.60
2023-01-01T09:15:52.340Z,12.90
2023-01-01T09:18:22.066Z,12.60
2023-01-01T09:20:49.282Z,12.80
2023-01-01T09:23:16.326Z,12.70
2023-01-01T09:28:14.486Z,13.10
2023-01-01T09:33:09.077Z,12.50
2023-01-01T09:41:00.383Z,12.60
2023-01-01T09:43:40.957Z,12.60
2023-01-01T09:46:08.977Z,12.50
2023-01-01T09:48:40.550Z,13.30
2023-01-01T09:51:15.635Z,14.80
2023-01-01T09:53:54.575Z,13.20
2023-01-01T09:56:28.979Z,12.60
2023-01-01T09:58:59.227Z,12.60
2023-01-01T10:01:53.496Z,12.60
2023-01-01T10:04:35.592Z,11.60
2023-01-01T10:07:15.089Z,14.10
2023-01-01T10:10:06.363Z,10.70
2023-01-01T10:12:42.215Z,12.20
2023-01-01T10:15:18.657Z,17.00
2023-01-01T10:17:48.648Z,16.90
2023-01-01T10:20:27.245Z,12.80
2023-01-01T10:22:59.836Z,12.60
2023-01-01T10:25:29.503Z,12.60
2023-01-01T10:28:04.951Z,13.30
2023-01-01T10:30:32.719Z,12.60
2023-01-01T10:33:00.286Z,12.70
2023-01-01T10:35:39.858Z,13.50
2023-01-01T10:38:08.060Z,12.60
2023-01-01T10:40:35.079Z,13.30
2023-01-01T10:43:04.185Z,12.30
2023-01-01T10:45:49.005Z,12.40
2023-01-01T10:48:22.192Z,12.40
2023-01-01T10:50:53.541Z,12.80
2023-01-01T10:53:29.469Z,13.00
2023-01-01T10:56:00.983Z,12.40
2023-01-01T10:58:27.830Z,14.70
2023-01-01T11:00:59.622Z,13.50
2023-01-01T11:06:07.101Z,12.40
2023-01-01T11:08:37.640Z,11.40
2023-01-01T11:11:04.947Z,12.40
2023-01-01T11:13:33.426Z,12.40
2023-01-01T11:16:00.999Z,12.60
2023-01-01T11:18:35.872Z,12.90
2023-01-01T11:21:05.939Z,12.40
2023-01-01T11:23:34.354Z,12.80
2023-01-01T11:26:09.741Z,12.20
2023-01-01T11:28:36.880Z,13.30
2023-01-01T11:31:18.924Z,14.00
2023-01-01T11:33:54.395Z,13.00
2023-01-01T11:36:25.742Z,12.20
2023-01-01T11:39:19.793Z,12.70
2023-01-01T11:41:51.787Z,12.90
2023-01-01T11:44:37.563Z,12.60
2023-01-01T11:47:06.620Z,11.10
2023-01-01T11:49:34.530Z,13.50
2023-01-01T11:52:21.845Z,12.90
2023-01-01T11:57:22.077Z,12.80
2023-01-01T11:59:55.952Z,12.90
2023-01-01T12:02:50.781Z,14.10
2023-01-01T12:05:24.206Z,13.30
2023-01-01T12:07:52.657Z,12.70
2023-01-01T12:10:24.770Z,11.90
2023-01-01T12:13:01.365Z,13.10
2023-01-01T12:16:01.403Z,13.10
2023-01-01T12:18:42.555Z,11.60
2023-01-01T12:21:28.830Z,12.90
2023-01-01T12:23:56.214Z,13.60
2023-01-01T12:27:05.254Z,12.80
2023-01-01T12:29:42.023Z,12.70
2023-01-01T12:32:20.699Z,12.40
2023-01-01T12:35:06.416Z,12.60
2023-01-01T12:38:09.335Z,11.70
2023-01-01T12:40:58.495Z,12.90
2023-01-01T12:43:40.943Z,12.50
2023-01-01T12:46:55.623Z,11.90
2023-01-01T12:49:49.873Z,12.50
2023-01-01T12:52:42.259Z,12.50
2023-01-01T12:55:42.947Z,14.60
2023-01-01T12:58:16.804Z,12.40
2023-01-01T13:00:48.291Z,11.80
2023-01-01T13:03:26.885Z,12.40
2023-01-01T13:05:56.725Z,13.20
2023-01-01T13:08:24.026Z,12.30
2023-01-01T13:10:54.778Z,12.30
2023-01-01T13:13:26.297Z,12.20
2023-01-01T13:15:56.249Z,12.30
2023-01-01T13:18:26.581Z,12.80
2023-01-01T13:23:36.015Z,12.40
2023-01-01T13:26:18.202Z,12.40
2023-01-01T13:28:59.705Z,13.20
2023-01-01T13:31:39.501Z,12.30
2023-01-01T13:34:31.904Z,12.30
2023-01-01T13:37:14.665Z,12.70
2023-01-01T13:39:56.128Z,12.30
2023-01-01T13:42:59.083Z,12.20
2023-01-01T13:48:57.520Z,12.10
2023-01-01T13:54:46.884Z,12.10
2023-01-01T13:57:41.616Z,11.90
2023-01-01T14:00:21.421Z,12.00
2023-01-01T14:03:06.908Z,11.90
2023-01-01T14:05:38.156Z,12.60
2023-01-01T14:08:36.722Z,11.80
2023-01-01T14:11:19.730Z,12.40
2023-01-01T14:16:19.594Z,12.10
2023-01-01T14:18:59.714Z,11.70
2023-01-01T14:21:31.881Z,11.70
2023-01-01T14:26:28.234Z,11.60
2023-01-01T14:28:57.434Z,11.90
2023-01-01T14:31:34.843Z,11.60
2023-01-01T14:34:29.991Z,11.70
2023-01-01T14:36:59.457Z,11.40
2023-01-01T14:39:30.040Z,13.20
2023-01-01T14:42:11.768Z,11.50
2023-01-01T14:44:42.288Z,13.20
2023-01-01T14:47:33.914Z,9.50
2023-01-01T14:50:12.186Z,12.90
2023-01-01T14:52:40.057Z,11.40
2023-01-01T14:55:08.377Z,11.30
2023-01-01T14:57:37.178Z,11.60
2023-01-01T15:00:22.242Z,11.40
2023-01-01T15:02:51.544Z,11.40
2023-01-01T15:05:35.689Z,11.40
2023-01-01T15:08:19.565Z,11.30
2023-01-01T15:13:23.426Z,11.30
2023-01-01T15:15:56.262Z,11.30
2023-01-01T15:18:45.916Z,11.30
2023-01-01T15:21:38.644Z,12.60
2023-01-01T15:24:15.861Z,11.30
2023-01-01T15:26:49.800Z,12.80
2023-01-01T15:29:26.159Z,12.70
2023-01-01T15:32:00.788Z,11.20
2023-01-01T15:35:06.534Z,11.10
2023-01-01T15:37:51.311Z,10.80
2023-01-01T15:40:18.609Z,11.10
2023-01-01T15:42:57.012Z,11.00
2023-01-01T15:45:32.565Z,11.00
2023-01-01T15:48:05.741Z,10.90
2023-01-01T15:50:43.981Z,11.40
2023-01-01T15:55:46.769Z,10.80
2023-01-01T15:58:41.005Z,10.80
2023-01-01T16:01:14.265Z,10.80
2023-01-01T16:04:13.798Z,10.90
2023-01-01T16:06:57.373Z,11.90
2023-01-01T16:09:24.799Z,10.90
2023-01-01T16:11:54.293Z,11.40
2023-01-01T16:14:23.083Z,9.40
2023-01-01T16:16:55.080Z,11.40
2023-01-01T16:19:23.227Z,15.50
2023-01-01T16:21:50.663Z,13.40
2023-01-01T16:24:19.933Z,10.60
2023-01-01T16:26:47.440Z,11.50
2023-01-01T16:29:14.683Z,10.70
2023-01-01T16:31:42.749Z,11.80
2023-01-01T16:34:27.935Z,10.60
2023-01-01T16:36:54.863Z,9.40
2023-01-01T16:39:21.920Z,11.50
2023-01-01T16:41:49.901Z,11.40
2023-01-01T16:44:17.014Z,10.90
2023-01-01T16:46:45.069Z,10.60
2023-01-01T16:49:12.150Z,10.60
2023-01-01T16:54:11.399Z,10.50
2023-01-01T17:01:37.204Z,10.50
2023-01-01T17:13:55.683Z,12.60
2023-01-01T17:16:28.056Z,10.40
2023-01-01T17:21:49.615Z,10.50
2023-01-01T17:29:37.469Z,10.40
2023-01-01T17:35:02.779Z,10.40
2023-01-01T17:37:45.557Z,10.30
2023-01-01T17:40:22.104Z,10.40
2023-01-01T17:45:46.598Z,10.30
2023-01-01T17:48:15.786Z,10.00
2023-01-01T17:50:54.613Z,10.40
2023-01-01T17:56:24.369Z,10.40
2023-01-01T17:58:55.613Z,10.40
2023-01-01T18:01:31.967Z,10.40
2023-01-01T18:07:36.411Z,10.30
2023-01-01T18:10:20.559Z,10.10
2023-01-01T18:17:59.082Z,9.70
2023-01-01T18:20:45.667Z,10.30
2023-01-01T18:24:13.483Z,10.40
2023-01-01T18:27:08.372Z,10.50
2023-01-01T18:34:15.248Z,10.00
2023-01-01T18:39:33.252Z,10.10
2023-01-01T18:42:27.100Z,10.10
2023-01-01T18:45:02.542Z,10.20
2023-01-01T18:50:14.966Z,10.20
2023-01-01T18:52:49.286Z,10.30
2023-01-01T18:55:19.008Z,10.20
2023-01-01T18:57:57.747Z,10.20
2023-01-01T19:00:54.021Z,10.30
2023-01-01T19:03:49.419Z,10.30
2023-01-01T19:06:27.118Z,11.70
2023-01-01T19:09:36.311Z,10.30
2023-01-01T19:12:20.856Z,10.20
2023-01-01T19:15:18.434Z,10.30
2023-01-01T19:17:59.486Z,10.20
2023-01-01T19:20:31.858Z,10.30
2023-01-01T19:23:20.686Z,10.30
2023-01-01T19:30:00.582Z,10.70
2023-01-01T19:32:37.963Z,9.20
2023-01-01T19:35:24.035Z,10.10
2023-01-01T19:38:23.280Z,10.10
2023-01-01T19:41:04.589Z,10.10
2023-01-01T19:44:01.833Z,10.10
2023-01-01T19:46:40.931Z,10.10
2023-01-01T19:53:12.927Z,10.30
2023-01-01T20:00:10.229Z,10.10
2023-01-01T20:02:48.010Z,9.20
2023-01-01T20:05:21.185Z,8.90
2023-01-01T20:07:48.444Z,10.20
2023-01-01T20:10:20.326Z,10.30
2023-01-01T20:12:51.008Z,9.90
2023-01-01T20:15:18.637Z,9.70
2023-01-01T20:17:48.369Z,12.60
2023-01-01T20:20:15.700Z,9.80
2023-01-01T20:22:43.244Z,10.00
2023-01-01T20:25:10.836Z,9.90
2023-01-01T20:28:01.725Z,11.30
2023-01-01T20:30:31.853Z,9.90
2023-01-01T20:38:12.824Z,9.90
2023-01-01T20:40:39.996Z,9.90
2023-01-01T20:45:39.855Z,10.60
2023-01-01T20:48:40.268Z,8.60
2023-01-01T20:58:36.656Z,9.50
2023-01-01T21:01:04.206Z,7.40
2023-01-01T21:05:59.049Z,9.80
2023-01-01T21:08:26.175Z,9.80
2023-01-01T21:10:53.367Z,9.10
2023-01-01T21:13:20.726Z,10.20
2023-01-01T21:21:01.613Z,10.40
2023-01-01T21:23:29.669Z,10.00
2023-01-01T21:25:59.185Z,9.90
2023-01-01T21:28:32.696Z,10.00
2023-01-01T21:31:01.093Z,10.00
2023-01-01T21:33:31.541Z,11.10
2023-01-01T21:36:20.057Z,10.00
2023-01-01T21:38:53.137Z,9.90
2023-01-01T22:03:21.484Z,10.00
2023-01-01T22:06:46.258Z,9.60
2023-01-01T22:10:43.481Z,10.00
2023-01-01T22:13:50.670Z,10.10
2023-01-01T22:16:30.631Z,10.90
2023-01-01T22:19:40.443Z,10.10
2023-01-01T22:22:35.452Z,10.70
2023-01-01T22:25:31.220Z,10.00
2023-01-01T22:28:29.560Z,10.10
2023-01-01T22:37:21.261Z,10.70
2023-01-01T22:40:23.654Z,9.10
2023-01-01T22:42:57.002Z,10.40
2023-01-01T22:49:18.410Z,10.80
2023-01-01T22:56:20.675Z,10.10
2023-01-01T22:58:57.884Z,10.10
2023-01-01T23:01:58.738Z,9.90
2023-01-01T23:04:32.416Z,10.10
2023-01-01T23:07:06.663Z,10.10
2023-01-01T23:09:41.561Z,10.00
2023-01-01T23:12:20.716Z,10.20
2023-01-01T23:28:04.771Z,9.90
2023-01-01T23:45:31.741Z,9.90
2023-01-01T23:48:39.198Z,9.80
2023-01-01T23:51:06.811Z,10.50
2023-01-01T23:53:36.797Z,9.90
